Time;durP1;ratioP1;P1;durP2;ratioP2;P2;SDS_P1;SDS_P2;PMS_P1;PMS_P2;Temp;Humidity;BMP_temperature;BMP_pressure;BME280_temperature;BME280_humidity;BME280_pressure;Samples;Min_cycle;Max_cycle;Signal;HPM_P1;HPM_P2
2022/01/02 00:00:33;;;;;;;52.60;30.38;;;;;;;;;;5024394;28;20083;-76
2022/01/02 00:03:02;;;;;;;56.25;34.13;;;;;;;;;;5024981;28;20025;-76
2022/01/02 00:05:29;;;;;;;57.45;34.33;;;;;;;;;;5031416;28;20387;-76
2022/01/02 00:08:06;;;;;;;55.10;31.35;;;;;;;;;;5017009;28;20025;-76
2022/01/02 00:10:33;;;;;;;51.65;31.10;;;;;;;;;;5031316;28;20046;-76
2022/01/02 00:13:00;;;;;;;117.20;63.75;;;;;;;;;;5031689;28;20075;-75
2022/01/02 00:15:26;;;;;;;116.45;60.85;;;;;;;;;;5030975;28;20045;-76
2022/01/02 00:17:56;;;;;;;111.00;61.60;;;;;;;;;;5031583;28;20445;-76
2022/01/02 00:20:32;;;;;;;87.82;47.88;;;;;;;;;;5020427;28;20556;-76
2022/01/02 00:22:59;;;;;;;82.70;45.05;;;;;;;;;;5011948;28;20103;-76
2022/01/02 00:25:30;;;;;;;77.28;43.25;;;;;;;;;;5013427;28;20046;-76
2022/01/02 00:27:58;;;;;;;65.63;37.13;;;;;;;;;;5025371;28;20029;-76
2022/01/02 00:30:25;;;;;;;75.13;41.50;;;;;;;;;;5030558;28;20052;-76
2022/01/02 00:32:51;;;;;;;68.63;41.83;;;;;;;;;;5024432;28;20057;-75
2022/01/02 00:35:18;;;;;;;78.63;45.08;;;;;;;;;;5026534;28;20037;-76
2022/01/02 00:37:44;;;;;;;63.22;34.78;;;;;;;;;;5031402;28;20113;-76
2022/01/02 00:40:10;;;;;;;69.20;40.90;;;;;;;;;;5029924;28;20072;-76
2022/01/02 00:42:38;;;;;;;66.28;38.13;;;;;;;;;;5031494;28;20080;-76
2022/01/02 00:45:04;;;;;;;67.90;38.30;;;;;;;;;;5033982;28;20041;-75
2022/01/02 00:47:30;;;;;;;79.80;45.00;;;;;;;;;;5040465;28;20083;-76
2022/01/02 00:49:56;;;;;;;76.28;44.30;;;;;;;;;;5029992;28;20041;-76
2022/01/02 00:52:22;;;;;;;65.10;38.33;;;;;;;;;;5030954;28;20029;-76
2022/01/02 00:54:48;;;;;;;57.78;33.63;;;;;;;;;;5030991;28;20037;-75
2022/01/02 00:57:17;;;;;;;82.25;43.28;;;;;;;;;;5029886;28;20029;-76
2022/01/02 01:00:03;;;;;;;79.60;41.25;;;;;;;;;;5030509;28;20381;-75
2022/01/02 01:02:33;;;;;;;64.43;34.55;;;;;;;;;;5027501;28;20059;-75
2022/01/02 01:05:01;;;;;;;53.58;32.58;;;;;;;;;;5027415;28;20033;-75
2022/01/02 01:07:27;;;;;;;54.88;33.42;;;;;;;;;;5029551;28;20037;-75
2022/01/02 01:09:56;;;;;;;67.00;35.88;;;;;;;;;;5030840;28;20384;-76
2022/01/02 01:12:23;;;;;;;85.00;45.75;;;;;;;;;;5029820;28;20124;-76
2022/01/02 01:14:50;;;;;;;56.47;31.05;;;;;;;;;;5018956;28;20076;-75
2022/01/02 01:17:17;;;;;;;38.38;23.13;;;;;;;;;;5015759;28;20064;-76
2022/01/02 01:19:43;;;;;;;40.65;24.15;;;;;;;;;;5030200;28;20112;-76
2022/01/02 01:22:09;;;;;;;46.13;23.95;;;;;;;;;;5029932;28;20049;-75
2022/01/02 01:24:36;;;;;;;39.35;21.88;;;;;;;;;;5023600;28;20076;-75
2022/01/02 01:27:08;;;;;;;47.55;27.63;;;;;;;;;;5018488;28;20376;-76
2022/01/02 01:29:35;;;;;;;32.38;20.35;;;;;;;;;;5025986;28;20841;-76
2022/01/02 01:32:02;;;;;;;32.45;19.27;;;;;;;;;;5030224;28;20068;-75
2022/01/02 01:34:28;;;;;;;37.83;21.98;;;;;;;;;;5029299;28;20042;-76
2022/01/02 01:36:54;;;;;;;62.60;32.13;;;;;;;;;;5016576;28;20030;-76
2022/01/02 01:39:20;;;;;;;49.45;25.85;;;;;;;;;;5024986;28;20037;-75
2022/01/02 01:41:46;;;;;;;60.92;30.80;;;;;;;;;;5030844;28;20042;-75
2022/01/02 01:46:39;;;;;;;67.40;31.40;;;;;;;;;;5027181;28;20042;-76
2022/01/02 01:49:22;;;;;;;68.05;32.20;;;;;;;;;;5029354;28;20499;-76
2022/01/02 01:51:48;;;;;;;69.70;35.83;;;;;;;;;;5026636;28;20391;-76
2022/01/02 01:54:14;;;;;;;54.40;27.17;;;;;;;;;;5028816;28;20037;-76
2022/01/02 01:56:41;;;;;;;46.25;24.98;;;;;;;;;;5030157;28;20030;-75
2022/01/02 01:59:07;;;;;;;44.45;24.42;;;;;;;;;;5029484;28;20510;-76
2022/01/02 02:01:33;;;;;;;41.65;22.65;;;;;;;;;;5029248;28;20037;-76
2022/01/02 02:03:59;;;;;;;44.45;23.70;;;;;;;;;;5029500;28;20534;-76
2022/01/02 02:06:26;;;;;;;46.97;24.85;;;;;;;;;;5029400;28;20065;-76
2022/01/02 02:08:53;;;;;;;72.03;33.90;;;;;;;;;;5029669;28;20128;-76
2022/01/02 02:11:20;;;;;;;40.67;21.27;;;;;;;;;;5017670;28;20040;-76
2022/01/02 02:13:47;;;;;;;39.72;23.55;;;;;;;;;;5029590;28;20044;-76
2022/01/02 02:16:13;;;;;;;28.15;15.50;;;;;;;;;;5028703;28;20044;-76
2022/01/02 02:18:39;;;;;;;33.33;16.25;;;;;;;;;;5029327;28;20426;-76
2022/01/02 02:21:05;;;;;;;30.42;18.05;;;;;;;;;;5021538;28;20025;-76
2022/01/02 02:23:31;;;;;;;28.88;17.40;;;;;;;;;;5029347;28;20057;-76
2022/01/02 02:25:57;;;;;;;28.98;16.58;;;;;;;;;;5028425;28;20033;-75
2022/01/02 02:28:26;;;;;;;32.63;18.73;;;;;;;;;;5033421;28;20033;-75
2022/01/02 02:30:52;;;;;;;43.35;25.30;;;;;;;;;;5028356;28;20025;-75
2022/01/02 02:33:19;;;;;;;34.70;17.55;;;;;;;;;;5028898;28;20034;-75
2022/01/02 02:35:46;;;;;;;32.92;18.70;;;;;;;;;;5028956;28;20429;-76
2022/01/02 02:38:13;;;;;;;34.03;19.33;;;;;;;;;;5028489;28;20060;-76
2022/01/02 02:40:39;;;;;;;42.47;20.60;;;;;;;;;;5026203;28;20026;-76
2022/01/02 02:43:19;;;;;;;41.28;22.77;;;;;;;;;;5042498;28;20380;-75
2022/01/02 02:51:21;;;;;;;55.08;25.27;;;;;;;;;;5027917;28;20041;-76
2022/01/02 02:53:48;;;;;;;50.78;25.58;;;;;;;;;;5028810;28;20441;-76
2022/01/02 02:56:19;;;;;;;40.25;19.33;;;;;;;;;;5028725;28;20116;-76
2022/01/02 02:58:46;;;;;;;49.13;24.95;;;;;;;;;;5028497;28;20116;-75
2022/01/02 03:01:15;;;;;;;46.35;22.48;;;;;;;;;;5028633;28;20033;-76
2022/01/02 03:03:42;;;;;;;42.85;22.58;;;;;;;;;;5045470;28;20036;-76
2022/01/02 03:06:09;;;;;;;45.80;24.33;;;;;;;;;;5032976;28;20044;-76
2022/01/02 03:08:35;;;;;;;47.95;23.30;;;;;;;;;;5027781;28;20037;-76
2022/01/02 03:11:02;;;;;;;44.13;21.95;;;;;;;;;;5033089;28;20061;-76
2022/01/02 03:13:28;;;;;;;42.70;22.92;;;;;;;;;;5032129;28;20725;-76
2022/01/02 03:15:54;;;;;;;30.58;17.00;;;;;;;;;;5023671;28;20754;-76
2022/01/02 03:18:20;;;;;;;31.23;17.63;;;;;;;;;;5026301;28;20091;-75
2022/01/02 03:20:46;;;;;;;30.83;15.93;;;;;;;;;;5032205;28;20029;-75
2022/01/02 03:23:12;;;;;;;29.55;15.65;;;;;;;;;;5032593;28;20065;-75
2022/01/02 03:25:38;;;;;;;29.58;15.82;;;;;;;;;;5038629;28;20035;-75
2022/01/02 03:28:04;;;;;;;26.13;14.93;;;;;;;;;;5033167;28;20033;-75
2022/01/02 03:30:30;;;;;;;29.40;15.45;;;;;;;;;;5031926;28;20041;-75
2022/01/02 03:32:56;;;;;;;41.55;22.70;;;;;;;;;;5029082;28;20040;-75
2022/01/02 03:35:22;;;;;;;36.90;19.67;;;;;;;;;;5032054;28;20041;-75
2022/01/02 03:37:49;;;;;;;33.28;18.13;;;;;;;;;;5032941;28;20030;-76
2022/01/02 03:40:15;;;;;;;31.00;18.05;;;;;;;;;;5031722;28;20045;-76
2022/01/02 03:42:41;;;;;;;31.55;17.90;;;;;;;;;;5041165;28;20033;-76
2022/01/02 03:45:08;;;;;;;30.55;16.63;;;;;;;;;;5033910;28;20044;-75
2022/01/02 03:47:34;;;;;;;27.00;16.27;;;;;;;;;;5031025;28;20075;-76
2022/01/02 03:50:00;;;;;;;67.10;33.38;;;;;;;;;;5032379;28;20041;-76
2022/01/02 03:52:26;;;;;;;44.17;22.48;;;;;;;;;;5027332;28;20493;-76
2022/01/02 03:54:52;;;;;;;40.90;22.30;;;;;;;;;;5021651;28;20037;-76
2022/01/02 03:57:18;;;;;;;41.38;19.83;;;;;;;;;;5031367;28;20032;-76
2022/01/02 03:59:44;;;;;;;40.53;19.08;;;;;;;;;;5028631;28;20045;-75
2022/01/02 04:02:10;;;;;;;34.50;17.92;;;;;;;;;;5031855;28;20021;-76
2022/01/02 04:04:37;;;;;;;198.95;107.45;;;;;;;;;;5027982;28;20051;-76
2022/01/02 04:07:03;;;;;;;73.22;44.40;;;;;;;;;;5032157;28;20029;-76
2022/01/02 04:09:29;;;;;;;43.95;23.95;;;;;;;;;;5028818;28;20037;-75
2022/01/02 04:11:55;;;;;;;29.80;16.83;;;;;;;;;;5016185;28;20044;-76
2022/01/02 04:14:21;;;;;;;30.48;16.77;;;;;;;;;;5027558;28;20683;-75
2022/01/02 04:16:47;;;;;;;32.65;17.98;;;;;;;;;;5031906;28;20075;-76
2022/01/02 04:19:13;;;;;;;74.32;36.03;;;;;;;;;;5030793;28;20049;-75
2022/01/02 04:21:39;;;;;;;58.45;31.85;;;;;;;;;;5031904;28;20771;-76
2022/01/02 04:24:05;;;;;;;33.10;19.52;;;;;;;;;;5031770;28;20064;-76
2022/01/02 04:26:31;;;;;;;33.92;19.23;;;;;;;;;;5027583;28;20111;-75
2022/01/02 04:28:58;;;;;;;31.40;17.50;;;;;;;;;;5031655;28;20057;-75
2022/01/02 04:31:24;;;;;;;40.83;21.52;;;;;;;;;;5016509;28;20073;-76
2022/01/02 04:33:50;;;;;;;32.90;19.35;;;;;;;;;;5011925;28;20090;-76
2022/01/02 04:36:16;;;;;;;30.95;16.65;;;;;;;;;;5023151;28;20029;-76
2022/01/02 04:38:43;;;;;;;31.75;17.90;;;;;;;;;;5031759;28;20423;-76
2022/01/02 04:41:09;;;;;;;26.83;16.52;;;;;;;;;;5025380;28;20036;-76
2022/01/02 04:43:35;;;;;;;29.63;16.30;;;;;;;;;;5022794;28;20034;-76
2022/01/02 04:46:01;;;;;;;24.17;13.85;;;;;;;;;;5030587;28;20025;-76
2022/01/02 04:48:27;;;;;;;23.58;12.52;;;;;;;;;;5021286;28;20037;-76
2022/01/02 04:50:53;;;;;;;20.58;11.23;;;;;;;;;;5026013;28;20032;-75
2022/01/02 04:53:21;;;;;;;17.83;9.85;;;;;;;;;;5027786;28;20038;-76
2022/01/02 04:55:47;;;;;;;21.77;9.98;;;;;;;;;;5025415;28;20024;-75
2022/01/02 04:58:13;;;;;;;20.48;11.45;;;;;;;;;;5030117;28;20037;-75
2022/01/02 05:00:39;;;;;;;19.02;11.27;;;;;;;;;;5031137;28;20357;-76
2022/01/02 05:03:05;;;;;;;18.98;8.65;;;;;;;;;;5023189;28;20038;-75
2022/01/02 05:05:31;;;;;;;20.77;12.13;;;;;;;;;;5015804;28;20060;-75
2022/01/02 05:07:57;;;;;;;19.48;9.77;;;;;;;;;;5020318;28;20034;-76
2022/01/02 05:10:23;;;;;;;19.98;9.55;;;;;;;;;;5031037;28;20065;-76
2022/01/02 05:12:49;;;;;;;16.60;10.18;;;;;;;;;;5024934;28;20076;-76
2022/01/02 05:15:15;;;;;;;17.48;9.55;;;;;;;;;;5020864;28;20682;-76
2022/01/02 05:17:41;;;;;;;17.25;10.63;;;;;;;;;;5030424;28;20025;-76
2022/01/02 05:20:07;;;;;;;17.00;9.90;;;;;;;;;;5023907;28;20040;-76
2022/01/02 05:22:33;;;;;;;15.13;9.70;;;;;;;;;;5025534;28;20088;-76
2022/01/02 05:24:59;;;;;;;15.60;8.93;;;;;;;;;;5029530;28;20155;-76
2022/01/02 05:27:25;;;;;;;17.73;9.93;;;;;;;;;;5030861;28;20051;-76
2022/01/02 05:29:51;;;;;;;18.90;9.90;;;;;;;;;;5029726;28;20040;-76
2022/01/02 05:32:17;;;;;;;17.30;9.65;;;;;;;;;;5030343;28;20506;-76
2022/01/02 05:34:43;;;;;;;17.08;8.93;;;;;;;;;;5030451;28;20040;-75
2022/01/02 05:37:09;;;;;;;20.73;10.52;;;;;;;;;;5027162;28;20029;-75
2022/01/02 05:39:35;;;;;;;17.92;11.63;;;;;;;;;;5029995;28;20079;-76
2022/01/02 05:42:01;;;;;;;20.88;12.98;;;;;;;;;;5018294;28;20037;-76
2022/01/02 05:44:27;;;;;;;20.75;11.68;;;;;;;;;;5029959;28;20033;-76
2022/01/02 05:46:53;;;;;;;18.10;11.07;;;;;;;;;;5029223;28;20045;-76
2022/01/02 05:49:20;;;;;;;17.75;10.27;;;;;;;;;;5018526;28;20038;-76
2022/01/02 05:51:46;;;;;;;18.27;9.80;;;;;;;;;;5029892;28;20099;-75
2022/01/02 05:54:12;;;;;;;17.65;10.13;;;;;;;;;;5029495;28;20041;-75
2022/01/02 05:56:38;;;;;;;16.98;10.82;;;;;;;;;;5030081;28;20037;-75
2022/01/02 05:59:04;;;;;;;21.02;12.95;;;;;;;;;;5019885;28;20038;-76
2022/01/02 06:01:30;;;;;;;33.95;16.83;;;;;;;;;;5024280;28;20033;-76
2022/01/02 06:03:56;;;;;;;36.95;17.55;;;;;;;;;;5029562;28;20041;-76
2022/01/02 06:06:22;;;;;;;25.63;13.20;;;;;;;;;;5022805;28;20042;-76
2022/01/02 06:08:48;;;;;;;30.48;13.60;;;;;;;;;;5029036;28;20029;-76
2022/01/02 06:11:14;;;;;;;20.80;10.50;;;;;;;;;;5029182;28;20060;-76
2022/01/02 06:13:40;;;;;;;19.95;11.68;;;;;;;;;;5014952;28;20029;-76
2022/01/02 06:16:07;;;;;;;20.02;11.48;;;;;;;;;;5026425;28;20055;-76
2022/01/02 06:18:33;;;;;;;18.80;11.00;;;;;;;;;;5028832;28;20071;-76
2022/01/02 06:20:59;;;;;;;21.15;12.70;;;;;;;;;;5021833;28;20033;-76
2022/01/02 06:23:25;;;;;;;18.25;10.63;;;;;;;;;;5024255;28;20068;-76
2022/01/02 06:25:51;;;;;;;20.00;12.20;;;;;;;;;;5027672;28;20033;-76
2022/01/02 06:28:17;;;;;;;25.13;14.25;;;;;;;;;;5038952;28;20111;-75
2022/01/02 06:30:43;;;;;;;22.25;12.15;;;;;;;;;;5031696;28;20029;-75
2022/01/02 06:33:09;;;;;;;22.42;13.98;;;;;;;;;;5029382;28;20036;-76
2022/01/02 06:35:36;;;;;;;19.67;12.35;;;;;;;;;;5022773;28;20029;-76
2022/01/02 06:38:19;;;;;;;20.17;12.25;;;;;;;;;;5022338;28;20025;-76
2022/01/02 06:40:45;;;;;;;19.65;13.48;;;;;;;;;;5020525;28;20397;-76
2022/01/02 06:43:13;;;;;;;25.55;13.85;;;;;;;;;;5025041;28;20552;-76
2022/01/02 06:45:39;;;;;;;33.08;17.95;;;;;;;;;;5029463;28;20075;-76
2022/01/02 06:48:05;;;;;;;31.77;18.63;;;;;;;;;;5028634;28;20083;-76
2022/01/02 06:50:31;;;;;;;27.25;16.60;;;;;;;;;;5029307;28;20040;-76
2022/01/02 06:52:57;;;;;;;29.90;18.67;;;;;;;;;;5023284;28;20034;-76
2022/01/02 06:55:23;;;;;;;24.92;15.65;;;;;;;;;;5031076;28;20079;-76
2022/01/02 06:57:50;;;;;;;22.67;14.32;;;;;;;;;;5027145;28;20052;-76
2022/01/02 07:00:17;;;;;;;23.05;14.93;;;;;;;;;;5020717;28;20029;-76
2022/01/02 07:02:43;;;;;;;22.00;13.18;;;;;;;;;;5032165;28;20039;-76
2022/01/02 07:05:09;;;;;;;25.17;15.93;;;;;;;;;;5030604;28;20041;-76
2022/01/02 07:07:45;;;;;;;20.17;12.40;;;;;;;;;;5027687;28;20029;-76
2022/01/02 07:10:12;;;;;;;20.40;12.48;;;;;;;;;;5022457;28;20033;-75
2022/01/02 07:12:38;;;;;;;22.65;11.80;;;;;;;;;;5028538;28;20133;-75
2022/01/02 07:15:05;;;;;;;19.40;11.70;;;;;;;;;;5031492;28;20042;-75
2022/01/02 07:17:31;;;;;;;23.58;13.57;;;;;;;;;;5030931;28;20040;-75
2022/01/02 07:19:57;;;;;;;22.52;12.30;;;;;;;;;;5029346;28;20034;-75
2022/01/02 07:22:23;;;;;;;20.10;14.05;;;;;;;;;;5033479;28;20053;-75
2022/01/02 07:24:51;;;;;;;17.85;10.98;;;;;;;;;;5030701;28;20079;-75
2022/01/02 07:27:20;;;;;;;18.90;10.13;;;;;;;;;;5026291;28;20025;-75
2022/01/02 07:29:47;;;;;;;17.88;11.02;;;;;;;;;;5029252;28;20033;-75
2022/01/02 07:32:13;;;;;;;20.00;11.18;;;;;;;;;;5022677;28;20032;-76
2022/01/02 07:34:39;;;;;;;16.25;11.73;;;;;;;;;;5030100;28;20041;-76
2022/01/02 07:37:06;;;;;;;21.30;13.68;;;;;;;;;;5024546;28;20135;-76
2022/01/02 07:39:32;;;;;;;18.23;10.68;;;;;;;;;;5023616;28;20038;-76
2022/01/02 07:41:58;;;;;;;18.15;11.13;;;;;;;;;;5033090;28;20029;-75
2022/01/02 07:44:24;;;;;;;20.23;11.77;;;;;;;;;;5024948;28;20540;-75
2022/01/02 07:46:50;;;;;;;21.40;12.05;;;;;;;;;;5024775;28;20060;-76
2022/01/02 07:49:16;;;;;;;22.02;12.73;;;;;;;;;;5029277;28;20674;-75
2022/01/02 07:51:42;;;;;;;18.35;11.85;;;;;;;;;;5033607;28;20029;-75
2022/01/02 07:54:08;;;;;;;17.92;12.02;;;;;;;;;;5027419;28;20033;-75
2022/01/02 07:56:34;;;;;;;26.40;15.38;;;;;;;;;;5037397;28;20831;-75
2022/01/02 07:59:00;;;;;;;25.10;14.35;;;;;;;;;;5038595;28;20040;-76
2022/01/02 08:01:27;;;;;;;22.52;13.55;;;;;;;;;;5035795;28;20120;-75
2022/01/02 08:03:54;;;;;;;25.88;14.10;;;;;;;;;;5047871;28;20285;-75
2022/01/02 08:06:20;;;;;;;23.80;15.70;;;;;;;;;;5034479;28;20040;-75
2022/01/02 08:08:46;;;;;;;31.20;19.65;;;;;;;;;;5031682;28;20084;-76
2022/01/02 08:11:15;;;;;;;18.70;9.98;;;;;;;;;;5036348;28;20037;-76
2022/01/02 08:13:41;;;;;;;15.90;9.45;;;;;;;;;;5033129;28;20142;-75
2022/01/02 08:16:07;;;;;;;19.77;12.13;;;;;;;;;;5039051;28;20104;-76
2022/01/02 08:18:33;;;;;;;19.10;11.45;;;;;;;;;;5034586;28;20034;-77
2022/01/02 08:20:59;;;;;;;20.88;14.98;;;;;;;;;;5025960;28;20867;-76
2022/01/02 08:23:25;;;;;;;17.10;9.95;;;;;;;;;;5024386;28;20062;-76
2022/01/02 08:25:51;;;;;;;13.02;6.88;;;;;;;;;;5026214;28;20068;-75
2022/01/02 08:28:17;;;;;;;8.13;3.08;;;;;;;;;;5030478;28;20120;-76
2022/01/02 08:30:43;;;;;;;19.73;13.43;;;;;;;;;;5024126;28;20113;-73
2022/01/02 08:33:10;;;;;;;15.32;9.52;;;;;;;;;;5030554;28;20069;-73
2022/01/02 08:35:37;;;;;;;10.00;6.63;;;;;;;;;;5031273;28;20029;-73
2022/01/02 08:38:03;;;;;;;11.27;6.05;;;;;;;;;;5024971;28;20029;-73
2022/01/02 08:40:30;;;;;;;14.57;7.10;;;;;;;;;;5031002;28;20132;-73
2022/01/02 08:42:56;;;;;;;13.88;8.10;;;;;;;;;;5026990;28;20071;-73
2022/01/02 08:45:23;;;;;;;13.02;7.10;;;;;;;;;;5022061;28;20076;-73
2022/01/02 08:47:49;;;;;;;14.93;7.88;;;;;;;;;;5020503;28;20029;-73
2022/01/02 08:50:15;;;;;;;11.75;6.38;;;;;;;;;;5023431;28;20044;-73
2022/01/02 08:52:41;;;;;;;12.48;6.75;;;;;;;;;;5023161;28;20041;-73
2022/01/02 08:55:07;;;;;;;13.45;7.50;;;;;;;;;;5016384;28;20044;-73
2022/01/02 08:57:33;;;;;;;12.27;7.60;;;;;;;;;;5030044;28;20116;-73
2022/01/02 08:59:59;;;;;;;11.40;6.80;;;;;;;;;;5029994;28;20052;-73
2022/01/02 09:02:25;;;;;;;13.25;7.55;;;;;;;;;;5026428;28;20753;-73
2022/01/02 09:04:51;;;;;;;16.17;8.23;;;;;;;;;;5027606;28;20060;-73
2022/01/02 09:07:17;;;;;;;14.10;8.90;;;;;;;;;;5029702;28;20112;-73
2022/01/02 09:09:43;;;;;;;12.77;8.10;;;;;;;;;;5027582;28;20061;-73
2022/01/02 09:12:12;;;;;;;14.77;9.23;;;;;;;;;;5034632;28;20459;-73
2022/01/02 09:14:38;;;;;;;14.23;9.80;;;;;;;;;;5030754;28;20034;-74
2022/01/02 09:17:04;;;;;;;14.43;9.52;;;;;;;;;;5023415;28;20520;-73
2022/01/02 09:19:30;;;;;;;14.52;9.02;;;;;;;;;;5027751;28;20061;-73
2022/01/02 09:21:56;;;;;;;16.90;9.70;;;;;;;;;;5026765;28;20056;-73
2022/01/02 09:24:22;;;;;;;14.85;8.50;;;;;;;;;;5022553;28;20412;-74
2022/01/02 09:26:48;;;;;;;13.43;8.93;;;;;;;;;;5022685;28;20051;-73
2022/01/02 09:29:14;;;;;;;13.77;8.32;;;;;;;;;;5021505;28;20041;-74
2022/01/02 09:31:40;;;;;;;14.48;8.90;;;;;;;;;;5022961;28;20034;-74
2022/01/02 09:34:06;;;;;;;13.77;8.27;;;;;;;;;;5019787;28;20064;-74
2022/01/02 09:36:32;;;;;;;15.82;8.65;;;;;;;;;;5026601;28;20053;-73
2022/01/02 09:38:58;;;;;;;13.90;9.00;;;;;;;;;;5021691;28;20061;-73
2022/01/02 09:41:24;;;;;;;14.85;9.13;;;;;;;;;;5018789;28;20656;-73
2022/01/02 09:43:50;;;;;;;16.08;9.90;;;;;;;;;;5022213;28;20798;-73
2022/01/02 09:46:18;;;;;;;21.25;11.27;;;;;;;;;;5027921;28;20026;-73
2022/01/02 09:48:45;;;;;;;19.17;12.23;;;;;;;;;;5021956;28;20173;-73
2022/01/02 09:51:11;;;;;;;20.60;12.10;;;;;;;;;;5020754;28;20041;-73
2022/01/02 09:53:37;;;;;;;18.27;12.23;;;;;;;;;;5028330;28;20391;-73
2022/01/02 09:56:03;;;;;;;19.45;10.75;;;;;;;;;;5028988;28;20524;-73
2022/01/02 09:58:30;;;;;;;13.85;9.63;;;;;;;;;;5019091;28;20025;-73
2022/01/02 10:00:56;;;;;;;17.15;11.23;;;;;;;;;;5025300;28;20049;-73
2022/01/02 10:03:22;;;;;;;16.60;10.63;;;;;;;;;;5014110;28;20034;-73
2022/01/02 10:05:50;;;;;;;16.83;10.07;;;;;;;;;;5023533;28;20048;-73
2022/01/02 10:08:20;;;;;;;16.15;11.07;;;;;;;;;;5026985;28;20087;-73
2022/01/02 10:10:46;;;;;;;16.55;9.95;;;;;;;;;;5029852;28;20430;-73
2022/01/02 10:13:12;;;;;;;15.20;9.77;;;;;;;;;;5026876;28;20037;-73
2022/01/02 10:15:38;;;;;;;16.40;10.05;;;;;;;;;;5025887;28;20030;-73
2022/01/02 10:18:09;;;;;;;20.25;11.25;;;;;;;;;;5014155;28;20041;-73
2022/01/02 10:20:36;;;;;;;17.58;11.70;;;;;;;;;;5027944;28;20056;-73
2022/01/02 10:23:05;;;;;;;19.27;10.32;;;;;;;;;;5028367;28;20081;-74
2022/01/02 10:25:41;;;;;;;17.92;11.40;;;;;;;;;;5025195;28;20064;-73
2022/01/02 10:28:26;;;;;;;16.17;9.63;;;;;;;;;;5021998;28;20036;-73
2022/01/02 10:31:01;;;;;;;17.58;11.25;;;;;;;;;;5029313;28;20053;-74
2022/01/02 10:33:28;;;;;;;17.67;10.48;;;;;;;;;;5027189;28;20038;-73
2022/01/02 10:36:02;;;;;;;19.75;10.48;;;;;;;;;;5018157;28;20041;-73
2022/01/02 10:38:29;;;;;;;16.15;9.95;;;;;;;;;;5024588;28;20543;-73
2022/01/02 10:40:55;;;;;;;12.75;9.18;;;;;;;;;;5020268;28;20742;-73
2022/01/02 10:43:31;;;;;;;14.88;8.95;;;;;;;;;;5021128;28;20026;-72
2022/01/02 10:45:59;;;;;;;17.33;9.38;;;;;;;;;;5027222;28;20467;-73
2022/01/02 10:48:30;;;;;;;15.50;9.20;;;;;;;;;;5020720;28;20029;-73
2022/01/02 10:51:09;;;;;;;12.93;8.95;;;;;;;;;;5019302;28;20030;-74
2022/01/02 10:53:36;;;;;;;16.30;9.38;;;;;;;;;;5025297;28;20579;-73
2022/01/02 10:56:03;;;;;;;16.85;9.50;;;;;;;;;;5021283;28;20034;-73
2022/01/02 10:58:29;;;;;;;17.27;11.07;;;;;;;;;;5021658;28;20427;-73
2022/01/02 11:01:01;;;;;;;16.65;9.30;;;;;;;;;;5022087;28;20468;-73
2022/01/02 11:03:29;;;;;;;18.10;10.35;;;;;;;;;;5022331;28;20036;-73
2022/01/02 11:05:57;;;;;;;16.77;9.82;;;;;;;;;;5027879;28;20048;-73
2022/01/02 11:08:26;;;;;;;25.40;14.00;;;;;;;;;;5024037;28;20034;-73
2022/01/02 11:10:52;;;;;;;23.27;14.07;;;;;;;;;;5027762;28;20075;-74
2022/01/02 11:13:18;;;;;;;24.25;12.35;;;;;;;;;;5024273;28;20065;-72
2022/01/02 11:15:45;;;;;;;16.98;8.98;;;;;;;;;;5022518;28;20105;-73
2022/01/02 11:18:11;;;;;;;18.65;8.57;;;;;;;;;;5026143;28;20036;-73
2022/01/02 11:20:39;;;;;;;20.90;10.90;;;;;;;;;;5025503;28;20029;-73
2022/01/02 11:23:23;;;;;;;19.38;11.05;;;;;;;;;;5025999;28;20092;-73
2022/01/02 11:26:08;;;;;;;17.52;10.43;;;;;;;;;;5029667;28;20033;-73
2022/01/02 11:28:41;;;;;;;31.55;17.58;;;;;;;;;;5028040;28;20037;-73
2022/01/02 11:31:10;;;;;;;28.02;15.85;;;;;;;;;;5030522;28;20049;-73
2022/01/02 11:33:39;;;;;;;29.63;18.02;;;;;;;;;;5025658;28;20080;-73
2022/01/02 11:36:23;;;;;;;22.58;14.73;;;;;;;;;;5031973;28;20071;-73
2022/01/02 11:39:00;;;;;;;31.27;17.23;;;;;;;;;;5027834;28;20108;-73
2022/01/02 11:41:35;;;;;;;21.73;13.85;;;;;;;;;;5031846;28;20038;-73
2022/01/02 11:44:01;;;;;;;18.08;11.32;;;;;;;;;;5031283;28;20037;-73
2022/01/02 11:46:31;;;;;;;17.27;10.50;;;;;;;;;;5031639;28;20048;-73
2022/01/02 11:49:13;;;;;;;19.77;12.20;;;;;;;;;;5027843;28;20038;-73
2022/01/02 11:51:48;;;;;;;13.45;7.97;;;;;;;;;;5026524;28;20108;-73
2022/01/02 11:54:35;;;;;;;10.98;5.97;;;;;;;;;;5028223;28;20143;-73
2022/01/02 11:57:18;;;;;;;8.23;4.45;;;;;;;;;;5025695;28;20859;-74
2022/01/02 11:59:47;;;;;;;13.50;7.18;;;;;;;;;;5022278;28;20041;-73
2022/01/02 12:02:19;;;;;;;12.05;7.18;;;;;;;;;;5030934;28;20026;-73
2022/01/02 12:07:35;;;;;;;13.60;7.13;;;;;;;;;;5022254;28;20137;-73
2022/01/02 12:10:16;;;;;;;12.68;7.07;;;;;;;;;;5018495;28;20048;-73
2022/01/02 12:12:55;;;;;;;18.10;9.23;;;;;;;;;;5025366;28;20025;-73
2022/01/02 12:15:21;;;;;;;14.25;8.00;;;;;;;;;;5030037;28;20037;-73
2022/01/02 12:18:07;;;;;;;10.25;5.72;;;;;;;;;;5031307;28;20797;-74
2022/01/02 12:20:52;;;;;;;21.88;11.40;;;;;;;;;;5023313;28;20022;-73
2022/01/02 12:25:59;;;;;;;15.82;8.65;;;;;;;;;;5034466;28;20357;-74
2022/01/02 12:28:25;;;;;;;15.48;8.10;;;;;;;;;;5031549;28;20484;-73
2022/01/02 12:30:52;;;;;;;17.33;7.68;;;;;;;;;;5029273;28;20030;-74
2022/01/02 12:33:25;;;;;;;32.47;15.18;;;;;;;;;;5025531;28;20041;-74
2022/01/02 12:35:51;;;;;;;27.30;11.98;;;;;;;;;;5025641;28;20028;-73
2022/01/02 12:38:17;;;;;;;20.63;10.80;;;;;;;;;;5029101;28;20037;-73
2022/01/02 12:40:44;;;;;;;14.35;7.05;;;;;;;;;;5029714;28;20033;-73
2022/01/02 12:43:10;;;;;;;17.67;6.68;;;;;;;;;;5030029;28;20029;-74
2022/01/02 12:45:36;;;;;;;8.43;4.47;;;;;;;;;;5021914;28;20424;-73
2022/01/02 12:48:02;;;;;;;9.70;4.35;;;;;;;;;;5029931;28;20441;-74
2022/01/02 12:50:30;;;;;;;12.07;3.95;;;;;;;;;;5029360;28;20048;-74
2022/01/02 12:52:56;;;;;;;11.18;5.90;;;;;;;;;;5026067;28;20036;-73
2022/01/02 12:55:23;;;;;;;14.30;5.30;;;;;;;;;;5029592;28;20080;-74
2022/01/02 12:57:49;;;;;;;13.25;5.47;;;;;;;;;;5030520;28;20068;-73
2022/01/02 13:00:15;;;;;;;11.05;6.40;;;;;;;;;;5029481;28;20034;-74
2022/01/02 13:02:41;;;;;;;13.05;7.20;;;;;;;;;;5023142;28;20025;-73
2022/01/02 13:05:07;;;;;;;14.90;7.72;;;;;;;;;;5030423;28;20486;-74
2022/01/02 13:07:35;;;;;;;18.02;11.32;;;;;;;;;;5029513;28;20238;-74
2022/01/02 13:10:02;;;;;;;45.92;26.02;;;;;;;;;;5026743;28;20033;-74
2022/01/02 13:12:30;;;;;;;28.58;15.27;;;;;;;;;;5026007;28;20085;-74
2022/01/02 13:15:00;;;;;;;18.88;9.88;;;;;;;;;;5030485;28;20041;-73
2022/01/02 13:17:29;;;;;;;18.48;9.30;;;;;;;;;;5029354;28;20036;-74
2022/01/02 13:19:58;;;;;;;29.70;16.17;;;;;;;;;;5030698;28;20037;-73
2022/01/02 13:22:25;;;;;;;31.73;18.83;;;;;;;;;;5029012;28;20499;-74
2022/01/02 13:24:56;;;;;;;30.38;15.35;;;;;;;;;;5030458;28;20049;-74
2022/01/02 13:27:23;;;;;;;25.60;13.32;;;;;;;;;;5027780;28;20033;-74
2022/01/02 13:30:03;;;;;;;18.83;11.60;;;;;;;;;;5026178;28;20052;-74
2022/01/02 13:32:37;;;;;;;30.88;16.63;;;;;;;;;;5026124;28;20033;-74
2022/01/02 13:35:05;;;;;;;27.40;15.65;;;;;;;;;;5029612;28;20621;-73
2022/01/02 13:37:41;;;;;;;30.70;17.98;;;;;;;;;;5029527;28;20117;-73
2022/01/02 13:40:19;;;;;;;26.15;16.00;;;;;;;;;;5021621;28;20511;-73
2022/01/02 13:42:47;;;;;;;19.63;11.02;;;;;;;;;;5029943;28;20120;-73
2022/01/02 13:45:15;;;;;;;15.60;9.80;;;;;;;;;;5022319;28;20080;-74
2022/01/02 13:47:41;;;;;;;16.77;9.63;;;;;;;;;;5023568;28;20462;-74
2022/01/02 13:50:09;;;;;;;18.73;10.65;;;;;;;;;;5023954;28;20038;-73
2022/01/02 13:52:54;;;;;;;22.20;15.07;;;;;;;;;;5029060;28;20476;-73
2022/01/02 13:55:20;;;;;;;17.63;11.13;;;;;;;;;;5027441;28;20038;-73
2022/01/02 13:57:46;;;;;;;25.05;14.68;;;;;;;;;;5027873;28;20033;-73
2022/01/02 14:00:16;;;;;;;24.45;15.20;;;;;;;;;;5028530;28;20042;-73
2022/01/02 14:02:42;;;;;;;31.25;20.23;;;;;;;;;;5028617;28;20029;-73
2022/01/02 14:05:08;;;;;;;43.55;27.75;;;;;;;;;;5024322;28;20049;-74
2022/01/02 14:07:35;;;;;;;36.25;24.25;;;;;;;;;;5028441;28;20549;-73
2022/01/02 14:10:03;;;;;;;36.05;21.92;;;;;;;;;;5019218;28;20870;-74
2022/01/02 14:12:33;;;;;;;31.27;20.15;;;;;;;;;;5023921;28;20029;-74
2022/01/02 14:15:02;;;;;;;26.83;16.77;;;;;;;;;;5027072;28;20400;-73
2022/01/02 14:17:34;;;;;;;20.70;12.90;;;;;;;;;;5024304;28;20030;-73
2022/01/02 14:20:00;;;;;;;20.08;12.35;;;;;;;;;;5026290;28;20060;-73
2022/01/02 14:22:26;;;;;;;55.60;35.03;;;;;;;;;;5027471;28;20547;-73
2022/01/02 14:24:53;;;;;;;42.33;27.20;;;;;;;;;;5028655;28;20041;-74
2022/01/02 14:27:25;;;;;;;34.15;19.98;;;;;;;;;;5026689;28;20049;-73
2022/01/02 14:29:52;;;;;;;35.17;21.92;;;;;;;;;;5023783;28;20376;-74
2022/01/02 14:32:18;;;;;;;31.80;18.23;;;;;;;;;;5022136;28;20088;-73
2022/01/02 14:34:44;;;;;;;33.78;16.88;;;;;;;;;;5023364;28;20117;-73
2022/01/02 14:37:11;;;;;;;27.27;17.52;;;;;;;;;;5028819;28;20045;-74